sensor_id;sensor_type;location;lat;lon;timestamp;P1;durP1;ratioP1;P2;durP2;ratioP2
483;SDS011;228;48.922;12.198;2022-10-28T00:03:53;10.83;;;7.90;;
483;SDS011;228;48.922;12.198;2022-10-28T00:06:26;11.67;;;8.30;;
483;SDS011;228;48.922;12.198;2022-10-28T00:08:57;10.53;;;7.37;;
483;SDS011;228;48.922;12.198;2022-10-28T00:11:25;11.33;;;7.90;;
483;SDS011;228;48.922;12.198;2022-10-28T00:13:55;10.50;;;7.87;;
483;SDS011;228;48.922;12.198;2022-10-28T00:16:24;19.97;;;12.40;;
483;SDS011;228;48.922;12.198;2022-10-28T00:18:59;18.43;;;11.50;;
483;SDS011;228;48.922;12.198;2022-10-28T00:21:29;12.30;;;9.70;;
483;SDS011;228;48.922;12.198;2022-10-28T00:23:59;11.30;;;9.47;;
483;SDS011;228;48.922;12.198;2022-10-28T00:26:26;12.30;;;9.33;;
483;SDS011;228;48.922;12.198;2022-10-28T00:28:56;9.97;;;8.37;;
483;SDS011;228;48.922;12.198;2022-10-28T00:31:29;14.50;;;10.30;;
483;SDS011;228;48.922;12.198;2022-10-28T00:33:57;11.50;;;8.70;;
483;SDS011;228;48.922;12.198;2022-10-28T00:36:25;12.73;;;9.17;;
483;SDS011;228;48.922;12.198;2022-10-28T00:39:06;12.00;;;9.13;;
483;SDS011;228;48.922;12.198;2022-10-28T00:41:43;14.97;;;9.23;;
483;SDS011;228;48.922;12.198;2022-10-28T00:50:36;11.30;;;9.27;;
483;SDS011;228;48.922;12.198;2022-10-28T00:53:18;11.73;;;8.80;;
483;SDS011;228;48.922;12.198;2022-10-28T00:55:48;16.77;;;9.70;;
483;SDS011;228;48.922;12.198;2022-10-28T00:58:15;12.70;;;8.93;;
483;SDS011;228;48.922;12.198;2022-10-28T01:00:43;10.43;;;8.37;;
483;SDS011;228;48.922;12.198;2022-10-28T01:03:09;13.07;;;8.73;;
483;SDS011;228;48.922;12.198;2022-10-28T01:05:36;11.13;;;8.83;;
483;SDS011;228;48.922;12.198;2022-10-28T01:08:05;12.50;;;8.60;;
483;SDS011;228;48.922;12.198;2022-10-28T01:13:14;12.80;;;8.83;;
483;SDS011;228;48.922;12.198;2022-10-28T01:15:55;11.00;;;8.70;;
483;SDS011;228;48.922;12.198;2022-10-28T01:21:30;11.80;;;8.53;;
483;SDS011;228;48.922;12.198;2022-10-28T01:24:23;10.20;;;8.17;;
483;SDS011;228;48.922;12.198;2022-10-28T01:27:38;11.70;;;8.27;;
483;SDS011;228;48.922;12.198;2022-10-28T01:30:25;12.23;;;8.93;;
483;SDS011;228;48.922;12.198;2022-10-28T01:33:03;12.87;;;8.23;;
483;SDS011;228;48.922;12.198;2022-10-28T01:39:07;13.53;;;7.77;;
483;SDS011;228;48.922;12.198;2022-10-28T01:44:19;14.37;;;8.33;;
483;SDS011;228;48.922;12.198;2022-10-28T01:49:53;12.20;;;8.63;;
483;SDS011;228;48.922;12.198;2022-10-28T01:52:26;12.33;;;8.90;;
483;SDS011;228;48.922;12.198;2022-10-28T01:54:57;11.60;;;8.67;;
483;SDS011;228;48.922;12.198;2022-10-28T01:57:36;14.27;;;8.97;;
483;SDS011;228;48.922;12.198;2022-10-28T02:00:04;15.70;;;8.30;;
483;SDS011;228;48.922;12.198;2022-10-28T02:02:37;13.93;;;8.50;;
483;SDS011;228;48.922;12.198;2022-10-28T02:05:51;13.20;;;8.73;;
483;SDS011;228;48.922;12.198;2022-10-28T02:11:09;10.47;;;8.70;;
483;SDS011;228;48.922;12.198;2022-10-28T02:17:08;10.90;;;8.83;;
483;SDS011;228;48.922;12.198;2022-10-28T02:19:53;14.10;;;9.63;;
483;SDS011;228;48.922;12.198;2022-10-28T02:25:31;11.87;;;9.30;;
483;SDS011;228;48.922;12.198;2022-10-28T02:28:15;10.70;;;8.77;;
483;SDS011;228;48.922;12.198;2022-10-28T02:31:39;11.37;;;8.67;;
483;SDS011;228;48.922;12.198;2022-10-28T02:34:20;13.03;;;8.97;;
483;SDS011;228;48.922;12.198;2022-10-28T02:36:56;10.13;;;8.10;;
483;SDS011;228;48.922;12.198;2022-10-28T02:39:28;8.93;;;7.80;;
483;SDS011;228;48.922;12.198;2022-10-28T02:42:05;11.77;;;7.37;;
483;SDS011;228;48.922;12.198;2022-10-28T02:44:50;9.90;;;7.80;;
483;SDS011;228;48.922;12.198;2022-10-28T02:47:40;8.80;;;7.33;;
483;SDS011;228;48.922;12.198;2022-10-28T02:50:31;10.40;;;8.00;;
483;SDS011;228;48.922;12.198;2022-10-28T02:53:03;15.47;;;8.23;;
483;SDS011;228;48.922;12.198;2022-10-28T02:55:43;10.77;;;7.77;;
483;SDS011;228;48.922;12.198;2022-10-28T02:58:17;15.60;;;8.23;;
483;SDS011;228;48.922;12.198;2022-10-28T03:00:43;12.23;;;8.83;;
483;SDS011;228;48.922;12.198;2022-10-28T03:03:11;10.00;;;8.97;;
483;SDS011;228;48.922;12.198;2022-10-28T03:05:38;10.50;;;8.67;;
483;SDS011;228;48.922;12.198;2022-10-28T03:08:04;11.30;;;8.17;;
483;SDS011;228;48.922;12.198;2022-10-28T03:10:30;9.80;;;8.03;;
483;SDS011;228;48.922;12.198;2022-10-28T03:12:56;17.73;;;8.30;;
483;SDS011;228;48.922;12.198;2022-10-28T03:15:22;14.73;;;7.83;;
483;SDS011;228;48.922;12.198;2022-10-28T03:17:48;15.33;;;7.87;;
483;SDS011;228;48.922;12.198;2022-10-28T03:20:14;23.40;;;7.70;;
483;SDS011;228;48.922;12.198;2022-10-28T03:22:43;8.70;;;7.80;;
483;SDS011;228;48.922;12.198;2022-10-28T03:25:09;9.23;;;7.83;;
483;SDS011;228;48.922;12.198;2022-10-28T03:27:37;10.50;;;7.63;;
483;SDS011;228;48.922;12.198;2022-10-28T03:30:05;10.47;;;8.17;;
483;SDS011;228;48.922;12.198;2022-10-28T03:32:32;11.77;;;8.83;;
483;SDS011;228;48.922;12.198;2022-10-28T03:34:58;10.30;;;8.13;;
483;SDS011;228;48.922;12.198;2022-10-28T03:37:24;11.10;;;8.53;;
483;SDS011;228;48.922;12.198;2022-10-28T03:39:50;10.83;;;8.70;;
483;SDS011;228;48.922;12.198;2022-10-28T03:42:16;9.87;;;8.23;;
483;SDS011;228;48.922;12.198;2022-10-28T03:44:42;10.93;;;8.40;;
483;SDS011;228;48.922;12.198;2022-10-28T03:47:08;14.73;;;8.73;;
483;SDS011;228;48.922;12.198;2022-10-28T03:49:34;12.80;;;8.80;;
483;SDS011;228;48.922;12.198;2022-10-28T03:52:00;10.23;;;8.23;;
483;SDS011;228;48.922;12.198;2022-10-28T03:54:27;10.37;;;8.70;;
483;SDS011;228;48.922;12.198;2022-10-28T03:56:53;10.90;;;8.87;;
483;SDS011;228;48.922;12.198;2022-10-28T03:59:19;15.27;;;9.07;;
483;SDS011;228;48.922;12.198;2022-10-28T04:01:45;9.23;;;8.33;;
483;SDS011;228;48.922;12.198;2022-10-28T04:04:11;10.13;;;7.80;;
483;SDS011;228;48.922;12.198;2022-10-28T04:06:37;8.57;;;7.50;;
483;SDS011;228;48.922;12.198;2022-10-28T04:09:03;8.77;;;7.87;;
483;SDS011;228;48.922;12.198;2022-10-28T04:11:29;9.40;;;7.80;;
483;SDS011;228;48.922;12.198;2022-10-28T04:13:55;9.23;;;8.20;;
483;SDS011;228;48.922;12.198;2022-10-28T04:16:21;10.13;;;8.90;;
483;SDS011;228;48.922;12.198;2022-10-28T04:18:47;15.27;;;9.83;;
483;SDS011;228;48.922;12.198;2022-10-28T04:21:13;13.30;;;9.17;;
483;SDS011;228;48.922;12.198;2022-10-28T04:23:39;11.57;;;8.80;;
483;SDS011;228;48.922;12.198;2022-10-28T04:26:06;14.33;;;8.50;;
483;SDS011;228;48.922;12.198;2022-10-28T04:28:32;12.57;;;8.57;;
483;SDS011;228;48.922;12.198;2022-10-28T04:30:58;11.57;;;9.17;;
483;SDS011;228;48.922;12.198;2022-10-28T04:33:26;9.30;;;8.27;;
483;SDS011;228;48.922;12.198;2022-10-28T04:35:52;8.33;;;7.43;;
483;SDS011;228;48.922;12.198;2022-10-28T04:38:19;10.50;;;8.87;;
483;SDS011;228;48.922;12.198;2022-10-28T04:40:46;16.17;;;8.90;;
483;SDS011;228;48.922;12.198;2022-10-28T04:43:13;15.27;;;8.20;;
483;SDS011;228;48.922;12.198;2022-10-28T04:45:40;9.87;;;8.57;;
483;SDS011;228;48.922;12.198;2022-10-28T04:48:06;13.53;;;9.00;;
483;SDS011;228;48.922;12.198;2022-10-28T04:50:34;11.40;;;9.13;;
483;SDS011;228;48.922;12.198;2022-10-28T04:53:08;19.37;;;9.10;;
483;SDS011;228;48.922;12.198;2022-10-28T04:55:35;11.97;;;9.47;;
483;SDS011;228;48.922;12.198;2022-10-28T04:58:01;17.00;;;9.70;;
483;SDS011;228;48.922;12.198;2022-10-28T05:00:28;13.17;;;9.53;;
483;SDS011;228;48.922;12.198;2022-10-28T05:02:55;16.33;;;9.83;;
483;SDS011;228;48.922;12.198;2022-10-28T05:05:21;11.77;;;10.10;;
483;SDS011;228;48.922;12.198;2022-10-28T05:07:47;13.30;;;10.50;;
483;SDS011;228;48.922;12.198;2022-10-28T05:10:13;12.70;;;9.73;;
483;SDS011;228;48.922;12.198;2022-10-28T05:12:45;11.17;;;8.73;;
483;SDS011;228;48.922;12.198;2022-10-28T05:15:12;9.60;;;8.60;;
483;SDS011;228;48.922;12.198;2022-10-28T05:17:39;9.37;;;8.37;;
483;SDS011;228;48.922;12.198;2022-10-28T05:20:07;9.40;;;8.40;;
483;SDS011;228;48.922;12.198;2022-10-28T05:22:35;9.40;;;8.00;;
483;SDS011;228;48.922;12.198;2022-10-28T05:25:02;11.83;;;9.33;;
483;SDS011;228;48.922;12.198;2022-10-28T05:27:29;11.03;;;9.50;;
483;SDS011;228;48.922;12.198;2022-10-28T05:29:55;11.87;;;9.67;;
483;SDS011;228;48.922;12.198;2022-10-28T05:32:21;12.40;;;9.50;;
483;SDS011;228;48.922;12.198;2022-10-28T05:34:47;12.17;;;9.20;;
483;SDS011;228;48.922;12.198;2022-10-28T05:37:13;11.83;;;9.80;;
483;SDS011;228;48.922;12.198;2022-10-28T05:39:39;9.83;;;8.63;;
483;SDS011;228;48.922;12.198;2022-10-28T05:42:05;10.07;;;8.53;;
483;SDS011;228;48.922;12.198;2022-10-28T05:44:32;10.60;;;9.10;;
483;SDS011;228;48.922;12.198;2022-10-28T05:46:58;9.50;;;8.07;;
483;SDS011;228;48.922;12.198;2022-10-28T05:49:24;9.97;;;8.40;;
483;SDS011;228;48.922;12.198;2022-10-28T05:51:50;12.03;;;8.90;;
483;SDS011;228;48.922;12.198;2022-10-28T05:54:16;14.73;;;8.93;;
483;SDS011;228;48.922;12.198;2022-10-28T05:56:42;10.30;;;8.37;;
483;SDS011;228;48.922;12.198;2022-10-28T05:59:08;10.47;;;8.07;;
483;SDS011;228;48.922;12.198;2022-10-28T06:01:34;10.57;;;8.30;;
483;SDS011;228;48.922;12.198;2022-10-28T06:04:00;12.17;;;8.80;;
483;SDS011;228;48.922;12.198;2022-10-28T06:06:26;10.53;;;8.73;;
483;SDS011;228;48.922;12.198;2022-10-28T06:08:53;10.70;;;8.93;;
483;SDS011;228;48.922;12.198;2022-10-28T06:11:19;14.13;;;9.10;;
483;SDS011;228;48.922;12.198;2022-10-28T06:13:45;13.33;;;10.00;;
483;SDS011;228;48.922;12.198;2022-10-28T06:16:11;16.80;;;10.37;;
483;SDS011;228;48.922;12.198;2022-10-28T06:18:37;19.43;;;10.50;;
483;SDS011;228;48.922;12.198;2022-10-28T06:21:04;13.27;;;10.33;;
483;SDS011;228;48.922;12.198;2022-10-28T06:23:30;13.60;;;10.17;;
483;SDS011;228;48.922;12.198;2022-10-28T06:26:00;13.60;;;10.37;;
483;SDS011;228;48.922;12.198;2022-10-28T06:28:27;13.33;;;10.17;;
483;SDS011;228;48.922;12.198;2022-10-28T06:31:00;11.77;;;9.80;;
483;SDS011;228;48.922;12.198;2022-10-28T06:33:32;13.60;;;10.20;;
483;SDS011;228;48.922;12.198;2022-10-28T06:36:02;14.10;;;10.63;;
483;SDS011;228;48.922;12.198;2022-10-28T06:38:28;14.47;;;10.97;;
483;SDS011;228;48.922;12.198;2022-10-28T06:40:58;13.10;;;10.10;;
483;SDS011;228;48.922;12.198;2022-10-28T06:43:24;14.80;;;10.37;;
483;SDS011;228;48.922;12.198;2022-10-28T06:45:51;16.50;;;9.23;;
483;SDS011;228;48.922;12.198;2022-10-28T06:48:21;9.70;;;8.57;;
483;SDS011;228;48.922;12.198;2022-10-28T06:50:53;12.50;;;9.60;;
483;SDS011;228;48.922;12.198;2022-10-28T06:53:20;11.23;;;9.40;;
483;SDS011;228;48.922;12.198;2022-10-28T06:55:53;11.07;;;9.03;;
483;SDS011;228;48.922;12.198;2022-10-28T06:58:20;13.80;;;9.93;;
483;SDS011;228;48.922;12.198;2022-10-28T07:00:47;12.90;;;9.73;;
483;SDS011;228;48.922;12.198;2022-10-28T07:03:14;13.30;;;9.83;;
483;SDS011;228;48.922;12.198;2022-10-28T07:05:41;12.07;;;9.63;;
483;SDS011;228;48.922;12.198;2022-10-28T07:08:07;18.13;;;11.33;;
483;SDS011;228;48.922;12.198;2022-10-28T07:10:34;13.23;;;9.70;;
483;SDS011;228;48.922;12.198;2022-10-28T07:13:00;12.70;;;10.73;;
483;SDS011;228;48.922;12.198;2022-10-28T07:15:27;14.50;;;10.60;;
483;SDS011;228;48.922;12.198;2022-10-28T07:17:54;13.43;;;10.50;;
483;SDS011;228;48.922;12.198;2022-10-28T07:20:22;19.93;;;11.50;;
483;SDS011;228;48.922;12.198;2022-10-28T07:23:00;17.40;;;11.80;;
483;SDS011;228;48.922;12.198;2022-10-28T07:25:27;17.63;;;12.67;;
483;SDS011;228;48.922;12.198;2022-10-28T07:27:58;13.10;;;10.23;;
483;SDS011;228;48.922;12.198;2022-10-28T07:30:25;14.17;;;11.27;;
483;SDS011;228;48.922;12.198;2022-10-28T07:32:52;13.50;;;10.20;;
483;SDS011;228;48.922;12.198;2022-10-28T07:35:18;17.63;;;10.43;;
483;SDS011;228;48.922;12.198;2022-10-28T07:37:45;13.73;;;10.27;;
483;SDS011;228;48.922;12.198;2022-10-28T07:40:12;14.33;;;10.90;;
483;SDS011;228;48.922;12.198;2022-10-28T07:42:38;12.70;;;10.47;;
483;SDS011;228;48.922;12.198;2022-10-28T07:45:04;12.53;;;10.43;;
483;SDS011;228;48.922;12.198;2022-10-28T07:47:31;11.97;;;10.20;;
483;SDS011;228;48.922;12.198;2022-10-28T07:49:57;12.67;;;10.57;;
483;SDS011;228;48.922;12.198;2022-10-28T07:52:23;11.97;;;10.37;;
483;SDS011;228;48.922;12.198;2022-10-28T07:54:50;14.10;;;10.73;;
483;SDS011;228;48.922;12.198;2022-10-28T07:57:17;15.97;;;12.00;;
483;SDS011;228;48.922;12.198;2022-10-28T07:59:44;13.40;;;10.83;;
483;SDS011;228;48.922;12.198;2022-10-28T08:02:20;14.67;;;11.50;;
483;SDS011;228;48.922;12.198;2022-10-28T08:04:56;14.40;;;12.43;;
483;SDS011;228;48.922;12.198;2022-10-28T08:07:24;18.37;;;12.53;;
483;SDS011;228;48.922;12.198;2022-10-28T08:09:54;19.70;;;13.80;;
483;SDS011;228;48.922;12.198;2022-10-28T08:12:26;17.93;;;13.90;;
483;SDS011;228;48.922;12.198;2022-10-28T08:14:54;17.10;;;13.23;;
483;SDS011;228;48.922;12.198;2022-10-28T08:17:21;18.57;;;14.37;;
483;SDS011;228;48.922;12.198;2022-10-28T08:19:47;19.03;;;14.40;;
483;SDS011;228;48.922;12.198;2022-10-28T08:22:16;16.87;;;13.97;;
483;SDS011;228;48.922;12.198;2022-10-28T08:24:42;18.10;;;13.67;;
483;SDS011;228;48.922;12.198;2022-10-28T08:27:09;15.87;;;12.37;;
483;SDS011;228;48.922;12.198;2022-10-28T08:29:35;15.33;;;12.20;;
483;SDS011;228;48.922;12.198;2022-10-28T08:32:01;18.23;;;11.93;;
483;SDS011;228;48.922;12.198;2022-10-28T08:34:32;14.80;;;11.80;;
483;SDS011;228;48.922;12.198;2022-10-28T08:36:59;15.33;;;11.67;;
483;SDS011;228;48.922;12.198;2022-10-28T08:39:25;14.23;;;11.97;;
483;SDS011;228;48.922;12.198;2022-10-28T08:50:50;15.33;;;11.80;;
483;SDS011;228;48.922;12.198;2022-10-28T08:53:34;15.17;;;12.60;;
483;SDS011;228;48.922;12.198;2022-10-28T08:56:14;17.77;;;11.63;;
483;SDS011;228;48.922;12.198;2022-10-28T08:58:49;14.13;;;11.43;;
483;SDS011;228;48.922;12.198;2022-10-28T09:01:21;14.13;;;11.90;;
483;SDS011;228;48.922;12.198;2022-10-28T09:04:01;16.30;;;12.10;;
483;SDS011;228;48.922;12.198;2022-10-28T09:06:40;15.00;;;11.77;;
483;SDS011;228;48.922;12.198;2022-10-28T09:09:08;16.77;;;13.00;;
483;SDS011;228;48.922;12.198;2022-10-28T09:11:49;18.50;;;11.97;;
483;SDS011;228;48.922;12.198;2022-10-28T09:14:56;14.77;;;11.83;;
483;SDS011;228;48.922;12.198;2022-10-28T09:55:32;10.97;;;9.57;;
483;SDS011;228;48.922;12.198;2022-10-28T09:57:59;9.97;;;8.80;;
483;SDS011;228;48.922;12.198;2022-10-28T10:00:28;11.20;;;8.43;;
483;SDS011;228;48.922;12.198;2022-10-28T10:30:30;10.45;;;8.50;;
483;SDS011;228;48.922;12.198;2022-10-28T10:33:03;10.50;;;7.43;;
483;SDS011;228;48.922;12.198;2022-10-28T10:35:35;10.05;;;7.30;;
483;SDS011;228;48.922;12.198;2022-10-28T10:38:03;10.55;;;7.78;;
483;SDS011;228;48.922;12.198;2022-10-28T10:40:34;8.50;;;7.47;;
483;SDS011;228;48.922;12.198;2022-10-28T10:46:16;9.23;;;7.80;;
483;SDS011;228;48.922;12.198;2022-10-28T10:48:42;8.43;;;7.53;;
483;SDS011;228;48.922;12.198;2022-10-28T10:51:24;7.90;;;6.80;;
483;SDS011;228;48.922;12.198;2022-10-28T10:53:57;7.95;;;6.53;;
483;SDS011;228;48.922;12.198;2022-10-28T10:57:07;8.65;;;7.07;;
483;SDS011;228;48.922;12.198;2022-10-28T10:59:43;9.77;;;7.72;;
483;SDS011;228;48.922;12.198;2022-10-28T11:02:44;9.55;;;7.28;;
483;SDS011;228;48.922;12.198;2022-10-28T11:05:18;10.15;;;7.53;;
483;SDS011;228;48.922;12.198;2022-10-28T11:07:48;9.10;;;6.65;;
483;SDS011;228;48.922;12.198;2022-10-28T11:10:23;9.70;;;7.70;;
483;SDS011;228;48.922;12.198;2022-10-28T11:12:54;9.35;;;7.43;;
483;SDS011;228;48.922;12.198;2022-10-28T11:15:29;7.00;;;6.30;;
483;SDS011;228;48.922;12.198;2022-10-28T11:18:10;7.25;;;6.45;;
483;SDS011;228;48.922;12.198;2022-10-28T11:20:50;7.32;;;6.55;;
483;SDS011;228;48.922;12.198;2022-10-28T11:27:11;6.80;;;6.10;;
483;SDS011;228;48.922;12.198;2022-10-28T11:30:17;6.97;;;5.82;;
483;SDS011;228;48.922;12.198;2022-10-28T11:38:49;6.45;;;5.82;;
483;SDS011;228;48.922;12.198;2022-10-28T11:44:24;5.20;;;4.70;;
483;SDS011;228;48.922;12.198;2022-10-28T11:47:26;5.38;;;4.88;;
483;SDS011;228;48.922;12.198;2022-10-28T11:53:30;5.07;;;4.57;;
483;SDS011;228;48.922;12.198;2022-10-28T12:01:55;4.50;;;4.10;;
483;SDS011;228;48.922;12.198;2022-10-28T12:04:55;4.93;;;4.43;;
483;SDS011;228;48.922;12.198;2022-10-28T12:10:36;5.25;;;4.75;;
483;SDS011;228;48.922;12.198;2022-10-28T12:16:33;5.25;;;4.80;;
483;SDS011;228;48.922;12.198;2022-10-28T12:19:17;4.60;;;4.20;;
483;SDS011;228;48.922;12.198;2022-10-28T12:24:39;4.53;;;4.13;;
483;SDS011;228;48.922;12.198;2022-10-28T12:27:12;4.65;;;4.25;;
483;SDS011;228;48.922;12.198;2022-10-28T12:29:47;4.60;;;4.20;;
483;SDS011;228;48.922;12.198;2022-10-28T12:32:19;4.97;;;4.38;;
483;SDS011;228;48.922;12.198;2022-10-28T12:37:37;5.82;;;4.55;;
483;SDS011;228;48.922;12.198;2022-10-28T12:40:12;4.68;;;4.28;;
483;SDS011;228;48.922;12.198;2022-10-28T12:42:49;5.60;;;4.38;;
483;SDS011;228;48.922;12.198;2022-10-28T12:45:28;4.30;;;3.90;;
483;SDS011;228;48.922;12.198;2022-10-28T12:47:58;5.53;;;4.50;;
483;SDS011;228;48.922;12.198;2022-10-28T12:57:11;4.82;;;4.35;;
483;SDS011;228;48.922;12.198;2022-10-28T12:59:47;4.40;;;4.00;;
483;SDS011;228;48.922;12.198;2022-10-28T13:02:24;5.45;;;4.53;;
483;SDS011;228;48.922;12.198;2022-10-28T13:04:56;5.30;;;3.97;;
483;SDS011;228;48.922;12.198;2022-10-28T13:10:17;4.13;;;3.70;;
483;SDS011;228;48.922;12.198;2022-10-28T13:16:06;4.43;;;3.72;;
483;SDS011;228;48.922;12.198;2022-10-28T13:18:57;4.20;;;3.80;;
483;SDS011;228;48.922;12.198;2022-10-28T13:25:02;4.13;;;3.72;;
483;SDS011;228;48.922;12.198;2022-10-28T13:27:59;6.95;;;3.67;;
483;SDS011;228;48.922;12.198;2022-10-28T13:30:26;4.43;;;3.95;;
483;SDS011;228;48.922;12.198;2022-10-28T13:33:00;4.25;;;3.85;;
483;SDS011;228;48.922;12.198;2022-10-28T13:35:32;5.07;;;3.97;;
483;SDS011;228;48.922;12.198;2022-10-28T13:38:07;4.35;;;3.60;;
483;SDS011;228;48.922;12.198;2022-10-28T13:43:56;3.95;;;3.58;;
483;SDS011;228;48.922;12.198;2022-10-28T13:49:25;3.72;;;3.35;;
483;SDS011;228;48.922;12.198;2022-10-28T13:57:18;4.65;;;3.30;;
483;SDS011;228;48.922;12.198;2022-10-28T14:00:44;3.95;;;2.97;;
483;SDS011;228;48.922;12.198;2022-10-28T14:02:57;4.35;;;3.90;;
483;SDS011;228;48.922;12.198;2022-10-28T14:08:05;4.50;;;3.53;;
483;SDS011;228;48.922;12.198;2022-10-28T14:11:03;4.65;;;3.38;;
483;SDS011;228;48.922;12.198;2022-10-28T14:13:37;4.60;;;3.40;;
483;SDS011;228;48.922;12.198;2022-10-28T14:18:55;5.68;;;3.80;;
483;SDS011;228;48.922;12.198;2022-10-28T14:21:37;3.88;;;3.55;;
483;SDS011;228;48.922;12.198;2022-10-28T14:29:46;4.35;;;3.88;;
483;SDS011;228;48.922;12.198;2022-10-28T14:38:17;4.40;;;3.60;;
483;SDS011;228;48.922;12.198;2022-10-28T14:40:50;7.20;;;3.63;;
483;SDS011;228;48.922;12.198;2022-10-28T14:46:32;3.72;;;3.33;;
483;SDS011;228;48.922;12.198;2022-10-28T14:49:26;4.45;;;3.63;;
483;SDS011;228;48.922;12.198;2022-10-28T14:51:56;7.20;;;3.63;;
483;SDS011;228;48.922;12.198;2022-10-28T14:54:52;4.07;;;3.67;;
483;SDS011;228;48.922;12.198;2022-10-28T14:57:29;3.95;;;3.55;;
483;SDS011;228;48.922;12.198;2022-10-28T15:00:00;5.78;;;4.32;;
483;SDS011;228;48.922;12.198;2022-10-28T15:02:32;5.38;;;3.88;;
483;SDS011;228;48.922;12.198;2022-10-28T15:07:49;5.68;;;4.18;;
483;SDS011;228;48.922;12.198;2022-10-28T15:12:52;6.13;;;4.05;;
483;SDS011;228;48.922;12.198;2022-10-28T15:17:47;6.47;;;4.50;;
483;SDS011;228;48.922;12.198;2022-10-28T15:22:52;7.72;;;4.43;;
483;SDS011;228;48.922;12.198;2022-10-28T15:25:25;6.30;;;4.00;;
483;SDS011;228;48.922;12.198;2022-10-28T15:27:53;6.30;;;4.57;;
483;SDS011;228;48.922;12.198;2022-10-28T15:30:20;6.50;;;4.32;;
483;SDS011;228;48.922;12.198;2022-10-28T15:32:53;5.35;;;4.60;;
483;SDS011;228;48.922;12.198;2022-10-28T15:35:44;7.53;;;4.88;;
483;SDS011;228;48.922;12.198;2022-10-28T15:38:23;6.15;;;4.85;;
483;SDS011;228;48.922;12.198;2022-10-28T15:40:55;7.22;;;4.63;;
483;SDS011;228;48.922;12.198;2022-10-28T15:43:30;5.03;;;4.10;;
483;SDS011;228;48.922;12.198;2022-10-28T15:46:09;6.90;;;4.88;;
483;SDS011;228;48.922;12.198;2022-10-28T15:48:40;5.38;;;4.60;;
483;SDS011;228;48.922;12.198;2022-10-28T15:51:11;5.40;;;4.40;;
483;SDS011;228;48.922;12.198;2022-10-28T15:53:48;5.85;;;4.97;;
483;SDS011;228;48.922;12.198;2022-10-28T15:56:23;6.10;;;4.57;;
483;SDS011;228;48.922;12.198;2022-10-28T16:04:05;5.50;;;4.28;;
483;SDS011;228;48.922;12.198;2022-10-28T16:06:43;4.40;;;3.97;;
483;SDS011;228;48.922;12.198;2022-10-28T16:11:40;6.25;;;4.95;;
483;SDS011;228;48.922;12.198;2022-10-28T16:14:28;5.32;;;4.65;;
483;SDS011;228;48.922;12.198;2022-10-28T16:19:50;5.20;;;4.47;;
483;SDS011;228;48.922;12.198;2022-10-28T16:22:38;6.87;;;5.20;;
483;SDS011;228;48.922;12.198;2022-10-28T16:25:12;4.70;;;4.20;;
483;SDS011;228;48.922;12.198;2022-10-28T16:27:41;10.00;;;4.60;;
483;SDS011;228;48.922;12.198;2022-10-28T16:30:08;6.27;;;4.40;;
483;SDS011;228;48.922;12.198;2022-10-28T16:32:42;5.70;;;4.40;;
483;SDS011;228;48.922;12.198;2022-10-28T16:35:12;6.73;;;4.87;;
483;SDS011;228;48.922;12.198;2022-10-28T16:37:47;8.43;;;5.60;;
483;SDS011;228;48.922;12.198;2022-10-28T16:40:15;7.20;;;4.83;;
483;SDS011;228;48.922;12.198;2022-10-28T16:42:41;6.67;;;5.07;;
483;SDS011;228;48.922;12.198;2022-10-28T16:45:13;8.10;;;5.30;;
483;SDS011;228;48.922;12.198;2022-10-28T16:47:41;6.30;;;5.30;;
483;SDS011;228;48.922;12.198;2022-10-28T16:50:07;6.47;;;5.37;;
483;SDS011;228;48.922;12.198;2022-10-28T16:52:34;5.47;;;4.57;;
483;SDS011;228;48.922;12.198;2022-10-28T16:55:00;6.93;;;4.60;;
483;SDS011;228;48.922;12.198;2022-10-28T16:57:26;5.90;;;4.40;;
483;SDS011;228;48.922;12.198;2022-10-28T16:59:52;7.70;;;5.23;;
483;SDS011;228;48.922;12.198;2022-10-28T17:02:22;6.33;;;4.67;;
483;SDS011;228;48.922;12.198;2022-10-28T17:04:52;6.63;;;4.17;;
483;SDS011;228;48.922;12.198;2022-10-28T17:07:18;8.03;;;4.80;;
483;SDS011;228;48.922;12.198;2022-10-28T17:09:44;7.40;;;5.07;;
483;SDS011;228;48.922;12.198;2022-10-28T17:12:14;7.00;;;4.73;;
483;SDS011;228;48.922;12.198;2022-10-28T17:14:43;6.87;;;5.13;;
483;SDS011;228;48.922;12.198;2022-10-28T17:17:10;7.40;;;5.30;;
483;SDS011;228;48.922;12.198;2022-10-28T17:19:37;10.40;;;6.70;;
483;SDS011;228;48.922;12.198;2022-10-28T17:22:04;7.73;;;6.30;;
483;SDS011;228;48.922;12.198;2022-10-28T17:24:31;8.57;;;5.87;;
483;SDS011;228;48.922;12.198;2022-10-28T17:26:57;5.90;;;5.30;;
483;SDS011;228;48.922;12.198;2022-10-28T17:29:23;8.93;;;5.57;;
483;SDS011;228;48.922;12.198;2022-10-28T17:31:49;6.20;;;5.20;;
483;SDS011;228;48.922;12.198;2022-10-28T17:34:15;7.03;;;5.30;;
483;SDS011;228;48.922;12.198;2022-10-28T17:36:42;8.63;;;5.13;;
483;SDS011;228;48.922;12.198;2022-10-28T17:39:08;6.60;;;5.07;;
483;SDS011;228;48.922;12.198;2022-10-28T17:41:34;8.73;;;6.00;;
483;SDS011;228;48.922;12.198;2022-10-28T17:44:00;7.83;;;5.80;;
483;SDS011;228;48.922;12.198;2022-10-28T17:46:26;8.80;;;6.40;;
483;SDS011;228;48.922;12.198;2022-10-28T17:48:52;9.37;;;6.30;;
483;SDS011;228;48.922;12.198;2022-10-28T17:51:18;12.03;;;7.70;;
483;SDS011;228;48.922;12.198;2022-10-28T17:53:51;13.00;;;7.80;;
483;SDS011;228;48.922;12.198;2022-10-28T17:56:20;9.03;;;7.00;;
483;SDS011;228;48.922;12.198;2022-10-28T17:58:46;10.30;;;7.80;;
483;SDS011;228;48.922;12.198;2022-10-28T18:01:16;8.60;;;6.17;;
483;SDS011;228;48.922;12.198;2022-10-28T18:03:43;8.03;;;5.93;;
483;SDS011;228;48.922;12.198;2022-10-28T18:06:09;9.67;;;6.43;;
483;SDS011;228;48.922;12.198;2022-10-28T18:08:40;10.73;;;7.33;;
483;SDS011;228;48.922;12.198;2022-10-28T18:11:09;8.93;;;7.37;;
483;SDS011;228;48.922;12.198;2022-10-28T18:13:38;9.20;;;8.07;;
483;SDS011;228;48.922;12.198;2022-10-28T18:18:40;10.50;;;7.80;;
483;SDS011;228;48.922;12.198;2022-10-28T18:21:07;11.43;;;7.90;;
483;SDS011;228;48.922;12.198;2022-10-28T18:23:33;10.93;;;7.50;;
483;SDS011;228;48.922;12.198;2022-10-28T18:26:00;9.83;;;7.60;;
483;SDS011;228;48.922;12.198;2022-10-28T18:28:30;11.93;;;8.40;;
483;SDS011;228;48.922;12.198;2022-10-28T18:31:01;11.17;;;8.17;;
483;SDS011;228;48.922;12.198;2022-10-28T18:33:34;9.87;;;7.20;;
483;SDS011;228;48.922;12.198;2022-10-28T18:36:00;10.90;;;7.57;;
483;SDS011;228;48.922;12.198;2022-10-28T18:38:29;12.03;;;7.40;;
483;SDS011;228;48.922;12.198;2022-10-28T18:40:55;12.27;;;8.27;;
483;SDS011;228;48.922;12.198;2022-10-28T18:43:22;12.33;;;7.63;;
483;SDS011;228;48.922;12.198;2022-10-28T18:45:49;11.37;;;8.07;;
483;SDS011;228;48.922;12.198;2022-10-28T18:48:15;10.40;;;7.53;;
483;SDS011;228;48.922;12.198;2022-10-28T18:50:42;12.10;;;7.77;;
483;SDS011;228;48.922;12.198;2022-10-28T18:53:08;9.63;;;7.83;;
483;SDS011;228;48.922;12.198;2022-10-28T18:55:35;9.90;;;7.87;;
483;SDS011;228;48.922;12.198;2022-10-28T18:58:01;9.73;;;7.13;;
483;SDS011;228;48.922;12.198;2022-10-28T19:00:27;11.93;;;7.83;;
483;SDS011;228;48.922;12.198;2022-10-28T19:02:53;11.97;;;7.63;;
483;SDS011;228;48.922;12.198;2022-10-28T19:05:19;10.10;;;7.40;;
483;SDS011;228;48.922;12.198;2022-10-28T19:07:45;10.17;;;7.70;;
483;SDS011;228;48.922;12.198;2022-10-28T19:10:11;13.33;;;7.90;;
483;SDS011;228;48.922;12.198;2022-10-28T19:12:37;12.43;;;7.70;;
483;SDS011;228;48.922;12.198;2022-10-28T19:15:03;11.63;;;7.33;;
483;SDS011;228;48.922;12.198;2022-10-28T19:17:29;10.57;;;7.40;;
483;SDS011;228;48.922;12.198;2022-10-28T19:19:55;10.40;;;6.80;;
483;SDS011;228;48.922;12.198;2022-10-28T19:22:21;9.50;;;6.87;;